(°C)
16°
17°
17°
17°
17°
17°
16°
(°C)
18°
18°
18°
17°
17°
16°
16°
GB
GB
GB
GB
GB
GB
GB
(km/saat)
13-22
14-22
13-21
12-19
11-17
9-15
7-12
(mm)
0
0
0
0
0
0
0
(%)
0
0
0
0
0
0
0

Güneşin açısı

/ 73.2°
sun-icon
UV 8
05:47
19:42
Azalan ay (199°)
22:00
06:56

San Diego (KSAN) için METAR

Zaman Koşullar Sıcaklık/
Çiy noktası
Rüzgar Görünürlük Hava Bulutlar Basınç Değiştir Ham
VFR 16.7°C / 10.6°C 190º 8kt >10km - Scattered Clouds 1800ft 1016 - KSAN 171951Z 19008KT 10SM SCT018 17/11 A3002 RMK AO2 SLP165 T01670106
VFR 16.7°C / 10.6°C 190º 8kt Gust 17kt >10km - Scattered Clouds 2100ft - KSAN 171902Z 19008G17KT 10SM SCT021 17/11 A3002 RMK AO2 T01670106
MVFR 16.7°C / 10.6°C 180º 10kt >10km - Broken Clouds 2100ft 1016 - KSAN 171851Z 18010KT 10SM BKN021 17/11 A3002 RMK AO2 SLP166 T01670106
MVFR 15.6°C / 10.6°C 200º 8kt >10km - Overcast 1900ft 1016 - KSAN 171751Z 20008KT 10SM OVC019 16/11 A3002 RMK AO2 SLP167 T01560106 10161 20139 51007
MVFR 15.6°C / 10.6°C 170º 8kt >10km - Overcast 1800ft 1016 - KSAN 171651Z 17008KT 10SM OVC018 16/11 A3002 RMK AO2 SLP164 T01560106
MVFR 15°C / 11.1°C 190º 8kt Gust 15kt >10km - Overcast 2000ft 1016 - KSAN 171551Z 19008G15KT 10SM OVC020 15/11 A3001 RMK AO2 SLP163 T01500111
MVFR 14.4°C / 11.1°C 200º 7kt >10km - Overcast 1800ft 1016 - KSAN 171451Z 20007KT 10SM OVC018 14/11 A3000 RMK AO2 SLP160 T01440111 51011
MVFR 14.4°C / 11.1°C 180º 8kt Gust 19kt >10km - Overcast 1600ft 1015 - KSAN 171351Z 18008G19KT 10SM OVC016 14/11 A3000 RMK AO2 SLP157 T01440111
MVFR 15°C / 12.2°C 190º 7kt >10km - Overcast 1600ft 1015 - KSAN 171251Z 19007KT 10SM OVC016 15/12 A2999 RMK AO2 SLP153 T01500122
MVFR 15.6°C / 12.2°C 210º 7kt >10km - Overcast 1500ft 1014 - KSAN 171151Z 21007KT 10SM OVC015 16/12 A2997 RMK AO2 SLP148 T01560122 10161 20150 51002
MVFR 15.6°C / 11.7°C 180º 5kt >10km - Overcast 1500ft 1014 - KSAN 171051Z 18005KT 10SM OVC015 16/12 A2997 RMK AO2 SLP148 T01560117
MVFR 15.6°C / 11.7°C 180º 5kt >10km - Overcast 1600ft 1014 - KSAN 170951Z 18005KT 10SM OVC016 16/12 A2997 RMK AO2 SLP148 T01560117
MVFR 15.6°C / 11.7°C 240º 6kt >10km - Overcast 1600ft 1014 - KSAN 170851Z 24006KT 10SM OVC016 16/12 A2997 RMK AO2 SLP147 T01560117 58002
MVFR 15.6°C / 11.7°C 270º 6kt >10km - Overcast 1500ft 1014 - KSAN 170751Z 27006KT 10SM OVC015 16/12 A2997 RMK AO2 SLP149 T01560117 401940144
MVFR 15.6°C / 12.2°C 230º 4kt >10km - Overcast 1500ft - KSAN 170733Z 23004KT 10SM OVC015 16/12 A2998 RMK AO2 T01560122
MVFR 15.6°C / 12.2°C variable 0kt >10km - Overcast 1300ft 1015 - KSAN 170651Z 00000KT 10SM OVC013 16/12 A2997 RMK AO2 SLP150 T01560122
MVFR 15.6°C / 12.2°C 250º 6kt >10km - Overcast 1300ft 1014 - KSAN 170551Z 25006KT 10SM OVC013 16/12 A2997 RMK AO2 SLP149 T01560122 10178 20156 51010
MVFR 15.6°C / 12.8°C 270º 3kt >10km - Overcast 1300ft 1014 - KSAN 170451Z 27003KT 10SM OVC013 16/13 A2997 RMK AO2 SLP146 T01560128
MVFR 16.1°C / 12.8°C 260º 6kt >10km - Broken Clouds 1300ft 1014 - KSAN 170351Z 26006KT 10SM BKN013 16/13 A2996 RMK AO2 SLP144 T01610128
MVFR 16.1°C / 12.8°C 270º 5kt >10km - Broken Clouds 1400ft 1013 - KSAN 170251Z 27005KT 9SM BKN014 16/13 A2994 RMK AO2 SLP139 T01610128 53003
MVFR 16.7°C / 12.8°C 300º 6kt >10km - Broken Clouds 1400ft 1013 - KSAN 170151Z 30006KT 10SM BKN014 17/13 A2994 RMK AO2 SLP137 BKN V SCT T01670128
MVFR 17.2°C / 12.8°C 310º 6kt >10km - Broken Clouds 1400ft 1013 - KSAN 170051Z 31006KT 10SM BKN014 17/13 A2993 RMK AO2 SLP136 T01720128
MVFR 17.2°C / 12.8°C 300º 7kt >10km - Broken Clouds 1400ft - KSAN 170042Z 30007KT 10SM BKN014 17/13 A2993 RMK AO2 T01720128
MVFR 17.2°C / 12.8°C 280º 7kt >10km - Broken Clouds 1600ft - KSAN 170029Z 28007KT 10SM BKN016 17/13 A2993 RMK AO2 T01720128

VFR

16.7°C / 10.6°C

[Daha fazla]
Rüzgar 190º 8kt
Görünürlük >10km
Hava -
Bulutlar Scattered Clouds 1800ft
Basınç 1016
Değiştir -
Ham KSAN 171951Z 19008KT 10SM SCT018 17/11 A3002 RMK AO2 SLP165 T01670106

VFR

16.7°C / 10.6°C

[Daha fazla]
Rüzgar 190º 8kt Gust 17kt
Görünürlük >10km
Hava -
Bulutlar Scattered Clouds 2100ft
Basınç
Değiştir -
Ham KSAN 171902Z 19008G17KT 10SM SCT021 17/11 A3002 RMK AO2 T01670106

MVFR

16.7°C / 10.6°C

[Daha fazla]
Rüzgar 180º 10kt
Görünürlük >10km
Hava -
Bulutlar Broken Clouds 2100ft
Basınç 1016
Değiştir -
Ham KSAN 171851Z 18010KT 10SM BKN021 17/11 A3002 RMK AO2 SLP166 T01670106

MVFR

15.6°C / 10.6°C

[Daha fazla]
Rüzgar 200º 8kt
Görünürlük >10km
Hava -
Bulutlar Overcast 1900ft
Basınç 1016
Değiştir -
Ham KSAN 171751Z 20008KT 10SM OVC019 16/11 A3002 RMK AO2 SLP167 T01560106 10161 20139 51007

MVFR

15.6°C / 10.6°C

[Daha fazla]
Rüzgar 170º 8kt
Görünürlük >10km
Hava -
Bulutlar Overcast 1800ft
Basınç 1016
Değiştir -
Ham KSAN 171651Z 17008KT 10SM OVC018 16/11 A3002 RMK AO2 SLP164 T01560106

MVFR

15°C / 11.1°C

[Daha fazla]
Rüzgar 190º 8kt Gust 15kt
Görünürlük >10km
Hava -
Bulutlar Overcast 2000ft
Basınç 1016
Değiştir -
Ham KSAN 171551Z 19008G15KT 10SM OVC020 15/11 A3001 RMK AO2 SLP163 T01500111

MVFR

14.4°C / 11.1°C

[Daha fazla]
Rüzgar 200º 7kt
Görünürlük >10km
Hava -
Bulutlar Overcast 1800ft
Basınç 1016
Değiştir -
Ham KSAN 171451Z 20007KT 10SM OVC018 14/11 A3000 RMK AO2 SLP160 T01440111 51011

MVFR

14.4°C / 11.1°C

[Daha fazla]
Rüzgar 180º 8kt Gust 19kt
Görünürlük >10km
Hava -
Bulutlar Overcast 1600ft
Basınç 1015
Değiştir -
Ham KSAN 171351Z 18008G19KT 10SM OVC016 14/11 A3000 RMK AO2 SLP157 T01440111

MVFR

15°C / 12.2°C

[Daha fazla]
Rüzgar 190º 7kt
Görünürlük >10km
Hava -
Bulutlar Overcast 1600ft
Basınç 1015
Değiştir -
Ham KSAN 171251Z 19007KT 10SM OVC016 15/12 A2999 RMK AO2 SLP153 T01500122

MVFR

15.6°C / 12.2°C

[Daha fazla]
Rüzgar 210º 7kt
Görünürlük >10km
Hava -
Bulutlar Overcast 1500ft
Basınç 1014
Değiştir -
Ham KSAN 171151Z 21007KT 10SM OVC015 16/12 A2997 RMK AO2 SLP148 T01560122 10161 20150 51002

MVFR

15.6°C / 11.7°C

[Daha fazla]
Rüzgar 180º 5kt
Görünürlük >10km
Hava -
Bulutlar Overcast 1500ft
Basınç 1014
Değiştir -
Ham KSAN 171051Z 18005KT 10SM OVC015 16/12 A2997 RMK AO2 SLP148 T01560117

MVFR

15.6°C / 11.7°C

[Daha fazla]
Rüzgar 180º 5kt
Görünürlük >10km
Hava -
Bulutlar Overcast 1600ft
Basınç 1014
Değiştir -
Ham KSAN 170951Z 18005KT 10SM OVC016 16/12 A2997 RMK AO2 SLP148 T01560117

MVFR

15.6°C / 11.7°C

[Daha fazla]
Rüzgar 240º 6kt
Görünürlük >10km
Hava -
Bulutlar Overcast 1600ft
Basınç 1014
Değiştir -
Ham KSAN 170851Z 24006KT 10SM OVC016 16/12 A2997 RMK AO2 SLP147 T01560117 58002

MVFR

15.6°C / 11.7°C

[Daha fazla]
Rüzgar 270º 6kt
Görünürlük >10km
Hava -
Bulutlar Overcast 1500ft
Basınç 1014
Değiştir -
Ham KSAN 170751Z 27006KT 10SM OVC015 16/12 A2997 RMK AO2 SLP149 T01560117 401940144

MVFR

15.6°C / 12.2°C

[Daha fazla]
Rüzgar 230º 4kt
Görünürlük >10km
Hava -
Bulutlar Overcast 1500ft
Basınç
Değiştir -
Ham KSAN 170733Z 23004KT 10SM OVC015 16/12 A2998 RMK AO2 T01560122

MVFR

15.6°C / 12.2°C

[Daha fazla]
Rüzgar variable 0kt
Görünürlük >10km
Hava -
Bulutlar Overcast 1300ft
Basınç 1015
Değiştir -
Ham KSAN 170651Z 00000KT 10SM OVC013 16/12 A2997 RMK AO2 SLP150 T01560122

MVFR

15.6°C / 12.2°C

[Daha fazla]
Rüzgar 250º 6kt
Görünürlük >10km
Hava -
Bulutlar Overcast 1300ft
Basınç 1014
Değiştir -
Ham KSAN 170551Z 25006KT 10SM OVC013 16/12 A2997 RMK AO2 SLP149 T01560122 10178 20156 51010

MVFR

15.6°C / 12.8°C

[Daha fazla]
Rüzgar 270º 3kt
Görünürlük >10km
Hava -
Bulutlar Overcast 1300ft
Basınç 1014
Değiştir -
Ham KSAN 170451Z 27003KT 10SM OVC013 16/13 A2997 RMK AO2 SLP146 T01560128

MVFR

16.1°C / 12.8°C

[Daha fazla]
Rüzgar 260º 6kt
Görünürlük >10km
Hava -
Bulutlar Broken Clouds 1300ft
Basınç 1014
Değiştir -
Ham KSAN 170351Z 26006KT 10SM BKN013 16/13 A2996 RMK AO2 SLP144 T01610128

MVFR

16.1°C / 12.8°C

[Daha fazla]
Rüzgar 270º 5kt
Görünürlük >10km
Hava -
Bulutlar Broken Clouds 1400ft
Basınç 1013
Değiştir -
Ham KSAN 170251Z 27005KT 9SM BKN014 16/13 A2994 RMK AO2 SLP139 T01610128 53003

MVFR

16.7°C / 12.8°C

[Daha fazla]
Rüzgar 300º 6kt
Görünürlük >10km
Hava -
Bulutlar Broken Clouds 1400ft
Basınç 1013
Değiştir -
Ham KSAN 170151Z 30006KT 10SM BKN014 17/13 A2994 RMK AO2 SLP137 BKN V SCT T01670128

MVFR

17.2°C / 12.8°C

[Daha fazla]
Rüzgar 310º 6kt
Görünürlük >10km
Hava -
Bulutlar Broken Clouds 1400ft
Basınç 1013
Değiştir -
Ham KSAN 170051Z 31006KT 10SM BKN014 17/13 A2993 RMK AO2 SLP136 T01720128

MVFR

17.2°C / 12.8°C

[Daha fazla]
Rüzgar 300º 7kt
Görünürlük >10km
Hava -
Bulutlar Broken Clouds 1400ft
Basınç
Değiştir -
Ham KSAN 170042Z 30007KT 10SM BKN014 17/13 A2993 RMK AO2 T01720128

MVFR

17.2°C / 12.8°C

[Daha fazla]
Rüzgar 280º 7kt
Görünürlük >10km
Hava -
Bulutlar Broken Clouds 1600ft
Basınç
Değiştir -
Ham KSAN 170029Z 28007KT 10SM BKN016 17/13 A2993 RMK AO2 T01720128

San Diego (KSAN) için TAF

From till


From till Wind 190º 10kt. Visibility 10km or more. Scattered Clouds 2500ft.
From till Wind 210º 7kt. Visibility 10km or more. Overcast 1500ft.
From till Wind 200º 5kt. Visibility 10km or more. Scattered Clouds 2000ft.
From till Wind 210º 10kt. Visibility 10km or more. Sky Clear.

Ham: KSAN 171733Z 1718/1824 19010KT P6SM SCT025 FM180200 21007KT P6SM OVC015 FM181700 20005KT P6SM SCT020 FM181900 21010KT P6SM SKC

San Diego için radar ve yağış nowcast

Çise
Hafif
Orta
Ağır
Çok ağır
Dolu

Konum işaretleyicisi San Diego üzerine yerleştirilir. Bu animasyon son saat içerisindeki yağış radarını ve 1h tahminini gösterir. Hafif yağmur veya kar yağışı radar için görünmez olabilir. Yağış şiddeti açık mavi ile koyu mor arasındaki renklerle kodlanmıştır.

San Diego için şu anki uydu görüntüleri, ABD

Konum işaretleyici San Diego üzerine yerleştirilir. [Daha fazla]

Gerçek zamanlı uydu görüntüsü gündüz süresince görülür ışığı gece süresince kızılötesi ışınım ile birleştirir. Gece kızılötesi ışınım sıcaklık farklarını algılayabildiğinden dolayı görüntü karanlık değildir. Ancak düşük bulutları ve sisi yer sıcaklığından ayırmak zordur ve bu nedenle gece boyunca neredeyse görünmez olabilirler. Avrupa için Meteosat uydu görüntüleri gerçek zamanlı olarak her 5 dakikada bir güncellenir. GOES-16/GOES-17 (Kuzey ve Güney Amerika) ve Himawari (Asya) görüntüleri her 10 dakikada bir güncellenir.

En başa git